Time;durP1;ratioP1;P1;durP2;ratioP2;P2;SDS_P1;SDS_P2;PMS_P1;PMS_P2;Temp;Humidity;BMP_temperature;BMP_pressure;BME280_temperature;BME280_humidity;BME280_pressure;Samples;Min_cycle;Max_cycle;Signal;HPM_P1;HPM_P2
2023/11/26 00:01:34;;;;;;;1.23;1.10;;;1.00;92.00;;;;;;6272073;22;20413;-84
2023/11/26 00:04:05;;;;;;;1.85;0.80;;;1.00;90.10;;;;;;6272143;22;20291;-84
2023/11/26 00:06:32;;;;;;;1.73;1.30;;;0.90;25.90;;;;;;6270932;22;20095;-84
2023/11/26 00:08:59;;;;;;;1.98;1.10;;;0.90;69.10;;;;;;6298085;22;20475;-85
2023/11/26 00:11:26;;;;;;;2.20;1.40;;;0.90;58.60;;;;;;6270799;22;20015;-84
2023/11/26 00:13:53;;;;;;;1.95;1.10;;;0.90;99.90;;;;;;6297311;22;20027;-84
2023/11/26 00:16:20;;;;;;;2.05;1.08;;;0.90;99.90;;;;;;6270224;22;20015;-84
2023/11/26 00:18:47;;;;;;;1.73;0.95;;;0.90;99.90;;;;;;6297440;22;20023;-83
2023/11/26 00:21:14;;;;;;;1.60;1.00;;;0.90;99.90;;;;;;6245544;22;20076;-84
2023/11/26 00:23:41;;;;;;;1.90;0.93;;;0.90;99.90;;;;;;6268218;22;20016;-84
2023/11/26 00:26:09;;;;;;;1.58;0.98;;;0.90;99.90;;;;;;6266872;22;20027;-83
2023/11/26 00:28:36;;;;;;;1.73;1.10;;;0.80;99.90;;;;;;6294162;22;20061;-82
2023/11/26 00:31:03;;;;;;;1.77;1.08;;;0.90;99.90;;;;;;6270139;22;20030;-83
2023/11/26 00:33:31;;;;;;;1.08;0.77;;;0.80;99.90;;;;;;6243030;22;20027;-84
2023/11/26 00:35:59;;;;;;;2.15;1.20;;;0.80;99.90;;;;;;6244967;22;20050;-84
2023/11/26 00:38:26;;;;;;;0.88;0.80;;;0.80;99.90;;;;;;6296023;22;20034;-84
2023/11/26 00:40:53;;;;;;;1.85;1.10;;;0.80;99.90;;;;;;6245584;22;20027;-83
2023/11/26 00:43:20;;;;;;;2.05;1.10;;;0.70;99.90;;;;;;6297936;22;20016;-84
2023/11/26 00:45:54;;;;;;;1.75;0.98;;;0.70;99.90;;;;;;6300708;22;20028;-89
2023/11/26 00:48:23;;;;;;;1.75;1.02;;;0.60;99.90;;;;;;6271805;22;20450;-84
2023/11/26 00:50:51;;;;;;;1.73;1.00;;;0.60;99.90;;;;;;6245308;22;20030;-85
2023/11/26 00:53:18;;;;;;;1.77;1.30;;;0.60;99.90;;;;;;6243096;22;20023;-83
2023/11/26 00:55:45;;;;;;;1.65;1.00;;;0.60;99.90;;;;;;6296923;22;20084;-80
2023/11/26 00:58:13;;;;;;;2.50;1.30;;;0.60;99.90;;;;;;6243171;22;20094;-80
2023/11/26 01:00:41;;;;;;;1.60;1.10;;;0.50;99.90;;;;;;6269626;22;20019;-80
2023/11/26 01:03:08;;;;;;;2.72;1.38;;;0.50;99.90;;;;;;6265627;22;20050;-79
2023/11/26 01:05:36;;;;;;;2.20;1.23;;;0.50;99.90;;;;;;6290804;22;20034;-80
2023/11/26 01:08:03;;;;;;;2.15;1.05;;;0.50;1.00;;;;;;6240666;22;20449;-80
2023/11/26 01:10:30;;;;;;;1.73;0.93;;;0.50;1.00;;;;;;6268758;22;20492;-80
2023/11/26 01:12:57;;;;;;;2.20;1.13;;;0.50;99.90;;;;;;6217884;22;20519;-80
2023/11/26 01:15:23;;;;;;;1.50;0.98;;;0.50;99.90;;;;;;6218850;22;20456;-79
2023/11/26 01:17:50;;;;;;;1.67;0.93;;;0.50;99.90;;;;;;6243526;22;20019;-80
2023/11/26 01:20:17;;;;;;;1.45;0.80;;;0.50;99.90;;;;;;6218385;22;20499;-80
2023/11/26 01:22:44;;;;;;;1.67;0.90;;;0.50;99.90;;;;;;6216610;22;20027;-79
2023/11/26 01:25:12;;;;;;;1.67;0.80;;;0.50;99.90;;;;;;6243513;22;20080;-79
2023/11/26 01:27:39;;;;;;;1.92;1.00;;;0.50;99.90;;;;;;6217495;22;20512;-79
2023/11/26 01:30:07;;;;;;;2.03;1.15;;;0.50;99.90;;;;;;6244590;22;20030;-79
2023/11/26 01:32:35;;;;;;;1.85;1.30;;;0.50;99.90;;;;;;6244155;22;20085;-79
2023/11/26 01:35:02;;;;;;;1.38;0.98;;;0.50;1.00;;;;;;6219006;22;20026;-79
2023/11/26 01:37:29;;;;;;;1.77;1.23;;;0.50;1.00;;;;;;6217176;22;20019;-79
2023/11/26 01:39:56;;;;;;;1.50;1.08;;;0.50;1.00;;;;;;6242510;22;20460;-79
2023/11/26 01:42:23;;;;;;;1.77;0.90;;;0.50;1.00;;;;;;6243894;22;20019;-79
2023/11/26 01:44:50;;;;;;;1.58;0.90;;;0.50;1.00;;;;;;6218066;22;20015;-79
2023/11/26 01:47:17;;;;;;;2.63;1.10;;;0.50;1.00;;;;;;6217954;22;20038;-79
2023/11/26 01:49:44;;;;;;;2.50;1.02;;;0.50;1.00;;;;;;6218638;22;20034;-79
2023/11/26 01:52:13;;;;;;;1.08;0.80;;;0.60;1.00;;;;;;6242525;22;20015;-79
2023/11/26 01:54:42;;;;;;;1.77;0.90;;;0.60;1.00;;;;;;6217431;22;20023;-79
2023/11/26 01:57:10;;;;;;;1.63;1.00;;;0.60;1.00;;;;;;6243247;22;20090;-80
2023/11/26 01:59:37;;;;;;;2.72;1.25;;;0.60;1.00;;;;;;6218609;22;20096;-79
2023/11/26 02:02:04;;;;;;;1.48;1.00;;;0.60;1.00;;;;;;6243242;22;20015;-79
2023/11/26 02:04:32;;;;;;;1.38;0.90;;;0.60;1.00;;;;;;6243324;22;20063;-79
2023/11/26 02:06:59;;;;;;;1.40;0.98;;;0.60;1.00;;;;;;6217703;22;20027;-79
2023/11/26 02:09:26;;;;;;;1.33;0.70;;;0.70;1.00;;;;;;6217275;22;20027;-79
2023/11/26 02:11:52;;;;;;;1.77;0.90;;;0.70;1.00;;;;;;6217741;22;20015;-79
2023/11/26 02:14:19;;;;;;;1.63;1.00;;;0.70;1.00;;;;;;6217804;22;20027;-79
2023/11/26 02:16:47;;;;;;;1.40;0.70;;;0.70;99.90;;;;;;6243275;22;20019;-80
2023/11/26 02:19:27;;;;;;;0.82;0.60;;;0.70;99.90;;;;;;6217957;22;20027;-79
2023/11/26 02:21:56;;;;;;;1.42;0.90;;;0.70;1.00;;;;;;6219111;22;20089;-79
2023/11/26 02:24:29;;;;;;;1.05;0.77;;;0.70;99.90;;;;;;6242402;22;20039;-79
2023/11/26 02:26:56;;;;;;;3.10;0.90;;;0.70;99.90;;;;;;6243266;22;20047;-79
2023/11/26 02:29:23;;;;;;;2.63;1.00;;;0.70;99.90;;;;;;6214140;22;20053;-79
2023/11/26 02:31:50;;;;;;;1.58;0.95;;;0.60;99.90;;;;;;6242923;22;20065;-79
2023/11/26 02:34:18;;;;;;;1.63;1.00;;;0.60;99.90;;;;;;6217922;22;20031;-79
2023/11/26 02:36:45;;;;;;;1.27;0.90;;;0.60;99.90;;;;;;6218695;22;20026;-80
2023/11/26 02:39:12;;;;;;;2.25;1.13;;;0.60;99.90;;;;;;6242417;22;20068;-79
2023/11/26 02:41:41;;;;;;;0.93;0.70;;;0.60;99.90;;;;;;6243055;22;20102;-79
2023/11/26 02:44:08;;;;;;;1.52;0.98;;;0.50;99.90;;;;;;6243921;22;20052;-79
2023/11/26 02:46:35;;;;;;;1.27;0.75;;;0.50;99.90;;;;;;6268559;22;20045;-79
2023/11/26 02:49:03;;;;;;;1.02;0.80;;;0.50;1.00;;;;;;6220299;22;20038;-79
2023/11/26 02:51:30;;;;;;;2.25;1.23;;;0.50;1.00;;;;;;6245735;22;20019;-79
2023/11/26 02:53:57;;;;;;;1.38;0.82;;;0.50;1.00;;;;;;6244157;22;20023;-79
2023/11/26 02:56:24;;;;;;;0.70;0.60;;;0.40;1.00;;;;;;6270966;22;20085;-79
2023/11/26 02:58:51;;;;;;;1.63;0.90;;;0.30;1.00;;;;;;6220614;22;20078;-79
2023/11/26 03:01:18;;;;;;;1.42;0.90;;;0.30;1.00;;;;;;6220534;22;20020;-78
2023/11/26 03:03:47;;;;;;;1.05;0.85;;;0.30;1.00;;;;;;6246071;22;20100;-79
2023/11/26 03:06:15;;;;;;;1.13;0.90;;;0.30;1.00;;;;;;6246673;22;20118;-79
2023/11/26 03:08:43;;;;;;;1.13;0.68;;;0.20;1.00;;;;;;6218463;22;20015;-79
2023/11/26 03:13:56;;;;;;;1.55;0.90;;;0.30;1.00;;;;;;6253295;22;20039;-79
2023/11/26 03:16:24;;;;;;;1.52;0.75;;;0.30;6.10;;;;;;6245571;22;20023;-81
2023/11/26 03:18:52;;;;;;;0.93;0.60;;;0.30;18.20;;;;;;6246185;22;20089;-81
2023/11/26 03:21:26;;;;;;;2.65;0.90;;;0.30;35.70;;;;;;6220548;22;20309;-80
2023/11/26 03:23:53;;;;;;;0.60;0.50;;;0.30;8.80;;;;;;6222374;22;20019;-81
2023/11/26 03:26:25;;;;;;;0.75;0.63;;;0.40;1.00;;;;;;6245797;22;20244;-81
2023/11/26 03:28:53;;;;;;;0.77;0.60;;;0.40;1.00;;;;;;6271622;22;20019;-81
2023/11/26 03:31:23;;;;;;;2.08;0.85;;;0.40;1.00;;;;;;6245929;22;20429;-80
2023/11/26 03:33:52;;;;;;;1.55;0.90;;;0.40;1.00;;;;;;6245713;22;20118;-79
2023/11/26 03:36:19;;;;;;;0.80;0.63;;;0.50;2.80;;;;;;6221102;22;20043;-80
2023/11/26 03:38:47;;;;;;;1.08;0.60;;;0.60;1.00;;;;;;6269692;22;20084;-80
2023/11/26 03:41:13;;;;;;;0.98;0.73;;;0.60;1.00;;;;;;6245483;22;20023;-79
2023/11/26 03:43:40;;;;;;;0.60;0.60;;;0.60;1.00;;;;;;6220016;22;20097;-80
2023/11/26 03:46:08;;;;;;;1.10;0.73;;;0.70;1.00;;;;;;6220130;22;20042;-80
2023/11/26 03:48:38;;;;;;;1.13;0.70;;;0.70;1.00;;;;;;6270161;22;20023;-79
2023/11/26 03:51:05;;;;;;;1.40;0.70;;;0.70;1.00;;;;;;6270852;22;20043;-79
2023/11/26 03:53:32;;;;;;;1.13;0.70;;;0.70;1.00;;;;;;6268301;22;20023;-80
2023/11/26 03:55:59;;;;;;;1.23;0.70;;;0.70;1.00;;;;;;6245483;22;20116;-80
2023/11/26 03:58:26;;;;;;;1.58;0.80;;;0.80;1.00;;;;;;6219737;22;20054;-80
2023/11/26 04:00:53;;;;;;;1.42;0.98;;;0.70;99.90;;;;;;6220364;22;20108;-79
2023/11/26 04:03:20;;;;;;;1.33;1.00;;;0.70;99.90;;;;;;6219720;22;20081;-79
2023/11/26 04:05:47;;;;;;;0.98;0.70;;;0.70;1.00;;;;;;6245482;22;20019;-79
2023/11/26 04:08:14;;;;;;;1.05;0.70;;;0.70;1.00;;;;;;6218724;22;20074;-79
2023/11/26 04:10:41;;;;;;;1.33;0.80;;;0.80;1.00;;;;;;6245377;22;20023;-79
2023/11/26 04:13:07;;;;;;;1.23;0.75;;;0.80;1.00;;;;;;6219590;22;20030;-79
2023/11/26 04:15:36;;;;;;;0.90;0.63;;;0.80;1.00;;;;;;6219561;22;20532;-79
2023/11/26 04:18:03;;;;;;;1.23;0.88;;;0.80;1.00;;;;;;6220660;22;20027;-80
2023/11/26 04:20:30;;;;;;;0.77;0.70;;;0.80;1.00;;;;;;6219669;22;20099;-79
2023/11/26 04:22:57;;;;;;;1.40;0.77;;;0.80;1.00;;;;;;6217858;22;20023;-79
2023/11/26 04:25:24;;;;;;;1.20;0.50;;;0.80;1.00;;;;;;6244669;22;20043;-79
2023/11/26 04:27:51;;;;;;;1.13;0.52;;;0.80;1.00;;;;;;6244804;22;20088;-79
2023/11/26 04:30:18;;;;;;;1.35;0.90;;;0.80;1.00;;;;;;6245047;22;20030;-79
2023/11/26 04:32:45;;;;;;;0.85;0.50;;;0.80;1.00;;;;;;6219444;22;20027;-79
2023/11/26 04:35:12;;;;;;;1.27;0.60;;;0.80;1.00;;;;;;6220397;22;20019;-79
2023/11/26 04:37:39;;;;;;;0.60;0.60;;;0.80;1.00;;;;;;6244042;22;20201;-79
2023/11/26 04:40:06;;;;;;;0.85;0.60;;;0.90;1.00;;;;;;6243395;22;20023;-79
2023/11/26 04:42:33;;;;;;;0.90;0.70;;;0.80;1.00;;;;;;6244929;22;20050;-79
2023/11/26 04:45:00;;;;;;;1.35;0.90;;;0.80;1.00;;;;;;6219816;22;20530;-79
2023/11/26 04:47:27;;;;;;;1.85;0.70;;;0.80;1.00;;;;;;6219616;22;20025;-79
2023/11/26 04:49:58;;;;;;;1.08;0.60;;;0.80;1.00;;;;;;6219389;22;20100;-79
2023/11/26 04:52:25;;;;;;;2.63;0.90;;;0.80;1.00;;;;;;6245487;22;20018;-79
2023/11/26 04:54:52;;;;;;;1.98;0.77;;;0.80;1.00;;;;;;6218726;22;20019;-79
2023/11/26 04:57:19;;;;;;;1.35;0.80;;;0.80;1.00;;;;;;6219753;22;20019;-79
2023/11/26 04:59:46;;;;;;;1.48;0.75;;;0.80;1.00;;;;;;6269966;22;20027;-81
2023/11/26 05:02:14;;;;;;;1.02;0.73;;;0.70;1.00;;;;;;6244078;22;20064;-78
2023/11/26 05:04:41;;;;;;;1.10;0.70;;;0.70;1.00;;;;;;6269548;22;20023;-79
2023/11/26 05:07:08;;;;;;;0.80;0.70;;;0.70;1.00;;;;;;6218984;22;20046;-79
2023/11/26 05:09:35;;;;;;;1.17;0.60;;;0.70;1.00;;;;;;6217684;22;20024;-79
2023/11/26 05:12:02;;;;;;;1.45;0.80;;;0.80;1.00;;;;;;6243739;22;20467;-79
2023/11/26 05:14:29;;;;;;;0.90;0.63;;;0.80;1.00;;;;;;6244399;22;20432;-79
2023/11/26 05:16:56;;;;;;;1.15;0.75;;;0.80;1.00;;;;;;6244478;22;20114;-79
2023/11/26 05:19:23;;;;;;;1.15;0.85;;;0.80;1.00;;;;;;6218812;22;20023;-79
2023/11/26 05:21:50;;;;;;;1.52;0.90;;;0.80;1.00;;;;;;6269316;22;20368;-79
2023/11/26 05:24:17;;;;;;;0.75;0.55;;;0.90;1.00;;;;;;6218277;22;20019;-79
2023/11/26 05:26:44;;;;;;;1.25;1.15;;;0.80;1.00;;;;;;6219102;22;20023;-79
2023/11/26 05:29:12;;;;;;;1.20;0.75;;;0.90;1.00;;;;;;6243847;22;20396;-79
2023/11/26 05:31:39;;;;;;;1.40;1.08;;;0.90;5.80;;;;;;6219265;22;20475;-80
2023/11/26 05:34:06;;;;;;;1.58;0.80;;;0.90;1.00;;;;;;6243860;22;20070;-79
2023/11/26 05:36:33;;;;;;;0.75;0.63;;;0.90;1.00;;;;;;6218644;22;20027;-79
2023/11/26 05:38:59;;;;;;;1.23;0.73;;;0.90;1.00;;;;;;6242628;22;20403;-79
2023/11/26 05:41:26;;;;;;;1.10;0.85;;;0.90;1.00;;;;;;6218403;22;20061;-80
2023/11/26 05:43:53;;;;;;;1.55;0.82;;;0.80;1.00;;;;;;6244153;22;20034;-79
2023/11/26 05:46:21;;;;;;;1.92;1.13;;;0.80;5.30;;;;;;6269479;22;20553;-79
2023/11/26 05:48:48;;;;;;;1.00;0.80;;;0.70;33.30;;;;;;6219148;22;20038;-79
2023/11/26 05:51:20;;;;;;;1.73;0.82;;;0.70;36.60;;;;;;6243738;22;20011;-79
2023/11/26 05:53:47;;;;;;;0.83;0.70;;;0.70;43.80;;;;;;6242557;22;20077;-79
2023/11/26 05:56:14;;;;;;;1.40;0.75;;;0.70;80.10;;;;;;6268951;22;20081;-79
2023/11/26 05:58:41;;;;;;;1.70;1.13;;;0.70;73.80;;;;;;6219148;22;20172;-79
2023/11/26 06:01:08;;;;;;;1.85;1.15;;;0.70;99.40;;;;;;6218897;22;20388;-79
2023/11/26 06:03:36;;;;;;;0.93;0.80;;;0.70;80.60;;;;;;6238489;22;20093;-80
2023/11/26 06:06:04;;;;;;;0.85;0.70;;;0.70;73.10;;;;;;6239518;22;20090;-79
2023/11/26 06:08:31;;;;;;;1.17;0.80;;;0.70;47.10;;;;;;6263320;22;20457;-79
2023/11/26 06:10:58;;;;;;;1.17;0.60;;;0.70;99.90;;;;;;6264829;22;20027;-79
2023/11/26 06:13:27;;;;;;;1.45;0.77;;;0.70;99.90;;;;;;6263416;22;20083;-79
2023/11/26 06:15:53;;;;;;;1.35;0.90;;;0.70;99.90;;;;;;6214585;22;20019;-79
2023/11/26 06:18:20;;;;;;;0.52;0.50;;;0.70;99.90;;;;;;6213991;22;20042;-79
2023/11/26 06:20:48;;;;;;;1.08;0.55;;;0.60;99.90;;;;;;6239021;22;20081;-79
2023/11/26 06:23:15;;;;;;;1.05;0.70;;;0.60;99.90;;;;;;6213272;22;20015;-79
2023/11/26 06:25:42;;;;;;;0.88;0.70;;;0.60;99.90;;;;;;6215623;22;20023;-80
2023/11/26 06:28:09;;;;;;;1.23;0.77;;;0.60;99.90;;;;;;6240875;22;20030;-79
2023/11/26 06:30:37;;;;;;;2.75;0.90;;;0.60;99.90;;;;;;6217019;22;20031;-79
2023/11/26 06:33:04;;;;;;;0.80;0.57;;;0.60;75.60;;;;;;6215589;22;20086;-79
2023/11/26 06:35:32;;;;;;;1.10;0.70;;;0.60;60.00;;;;;;6215833;22;20031;-79
2023/11/26 06:38:02;;;;;;;1.17;0.60;;;0.60;99.90;;;;;;6240481;22;20019;-80
2023/11/26 06:40:30;;;;;;;0.68;0.60;;;0.60;99.90;;;;;;6215616;22;20019;-79
2023/11/26 06:42:57;;;;;;;0.52;0.50;;;0.60;99.90;;;;;;6216305;22;20015;-80
2023/11/26 06:45:24;;;;;;;1.02;0.60;;;0.60;99.90;;;;;;6216757;22;20024;-78
2023/11/26 06:47:51;;;;;;;1.08;0.73;;;0.60;99.90;;;;;;6215674;22;20022;-78
2023/11/26 06:50:18;;;;;;;0.70;0.50;;;0.60;99.90;;;;;;6241257;22;20046;-79
2023/11/26 06:52:45;;;;;;;0.85;0.55;;;0.60;99.90;;;;;;6213191;22;20046;-78
2023/11/26 06:55:12;;;;;;;0.68;0.50;;;0.70;99.90;;;;;;6241205;22;20027;-81
2023/11/26 06:57:39;;;;;;;0.93;0.80;;;0.70;99.90;;;;;;6215637;22;20076;-79
2023/11/26 07:00:07;;;;;;;1.15;0.77;;;0.70;99.90;;;;;;6241134;22;20039;-81
2023/11/26 07:02:35;;;;;;;0.88;0.60;;;0.70;99.90;;;;;;6240861;22;20023;-79
2023/11/26 07:05:03;;;;;;;1.15;0.70;;;0.80;99.90;;;;;;6240566;22;20015;-79
2023/11/26 07:07:30;;;;;;;1.38;0.77;;;0.80;99.90;;;;;;6214995;22;20023;-79
2023/11/26 07:09:57;;;;;;;0.63;0.60;;;0.90;99.90;;;;;;6214797;22;20469;-80
2023/11/26 07:12:26;;;;;;;1.10;0.80;;;0.90;99.90;;;;;;6240324;22;20015;-79
2023/11/26 07:14:53;;;;;;;0.68;0.52;;;0.90;99.90;;;;;;6240998;22;20437;-79
2023/11/26 07:17:22;;;;;;;0.65;0.55;;;1.00;99.90;;;;;;6239914;22;20015;-79
2023/11/26 07:19:49;;;;;;;0.55;0.50;;;1.00;99.90;;;;;;6216362;22;20051;-79
2023/11/26 07:22:16;;;;;;;0.80;0.50;;;1.00;99.90;;;;;;6240528;22;20034;-79
2023/11/26 07:24:43;;;;;;;1.05;0.70;;;1.00;99.90;;;;;;6213937;22;20023;-79
2023/11/26 07:27:10;;;;;;;0.70;0.52;;;1.00;99.90;;;;;;6215199;22;20011;-79
2023/11/26 07:29:37;;;;;;;1.98;0.93;;;1.10;99.90;;;;;;6215963;22;20026;-79
2023/11/26 07:32:05;;;;;;;0.75;0.68;;;1.10;99.90;;;;;;6215428;22;20015;-80
2023/11/26 07:34:32;;;;;;;0.80;0.60;;;1.00;99.90;;;;;;6240332;22;20522;-79
2023/11/26 07:36:59;;;;;;;0.98;0.77;;;1.10;99.90;;;;;;6214852;22;20535;-80
2023/11/26 07:39:26;;;;;;;1.10;0.70;;;1.10;99.90;;;;;;6214583;22;20042;-79
2023/11/26 07:41:53;;;;;;;1.60;0.80;;;1.10;99.90;;;;;;6265933;22;20411;-79
2023/11/26 07:44:20;;;;;;;1.75;0.90;;;1.20;99.90;;;;;;6216240;22;20023;-79
2023/11/26 07:46:47;;;;;;;0.70;0.70;;;1.20;99.90;;;;;;6240203;22;20086;-79
2023/11/26 07:49:15;;;;;;;1.25;0.68;;;1.30;99.90;;;;;;6241046;22;20031;-80
2023/11/26 07:51:42;;;;;;;1.77;1.00;;;1.30;99.90;;;;;;6215040;22;20460;-79
2023/11/26 07:54:09;;;;;;;0.90;0.80;;;1.30;99.90;;;;;;6208674;22;20426;-80
2023/11/26 07:56:49;;;;;;;0.95;0.60;;;1.40;99.90;;;;;;6193370;22;20019;-80
2023/11/26 07:59:16;;;;;;;1.20;0.80;;;1.30;99.90;;;;;;6207913;22;20059;-80
2023/11/26 08:01:46;;;;;;;1.30;0.85;;;1.30;99.90;;;;;;6207364;22;20020;-81
2023/11/26 08:04:13;;;;;;;0.60;0.50;;;1.30;82.30;;;;;;6183039;22;20062;-79
2023/11/26 08:06:42;;;;;;;1.15;0.70;;;1.30;1.00;;;;;;6182483;22;20027;-80
2023/11/26 08:09:10;;;;;;;1.15;0.90;;;1.30;13.20;;;;;;6181381;22;20129;-82
2023/11/26 08:11:43;;;;;;;1.50;1.00;;;1.30;8.90;;;;;;6182888;22;20283;-81
2023/11/26 08:14:12;;;;;;;1.70;0.88;;;1.20;30.30;;;;;;6181657;22;20019;-79
2023/11/26 08:16:40;;;;;;;1.75;0.75;;;1.20;31.10;;;;;;6207547;22;20545;-79
2023/11/26 08:19:18;;;;;;;0.80;0.68;;;1.20;28.50;;;;;;6207162;22;20028;-79
2023/11/26 08:21:45;;;;;;;1.00;0.75;;;1.20;1.00;;;;;;6233041;22;20019;-79
2023/11/26 08:24:18;;;;;;;1.08;0.70;;;1.20;1.00;;;;;;6180626;22;20504;-79
2023/11/26 08:26:46;;;;;;;0.95;0.60;;;1.20;1.00;;;;;;6184586;22;20531;-79
2023/11/26 08:29:16;;;;;;;0.85;0.65;;;1.20;10.60;;;;;;6182548;22;20506;-79
2023/11/26 08:31:44;;;;;;;1.88;1.00;;;1.30;8.60;;;;;;6206186;22;20026;-79
2023/11/26 08:34:15;;;;;;;1.27;0.90;;;1.30;50.50;;;;;;6181337;22;20015;-79
2023/11/26 08:36:42;;;;;;;0.90;0.63;;;1.30;75.40;;;;;;6206846;22;20026;-80
2023/11/26 08:39:18;;;;;;;0.95;0.70;;;1.40;71.30;;;;;;6182316;22;20497;-83
2023/11/26 08:41:46;;;;;;;1.25;0.70;;;1.40;88.80;;;;;;6186345;22;20047;-82
2023/11/26 08:44:14;;;;;;;1.40;0.70;;;1.50;99.90;;;;;;6207720;22;20035;-84
2023/11/26 08:46:41;;;;;;;1.10;0.80;;;1.50;90.90;;;;;;6183472;22;20031;-82
2023/11/26 08:49:09;;;;;;;1.08;0.73;;;1.60;37.20;;;;;;6182937;22;20592;-81
2023/11/26 08:51:37;;;;;;;1.25;0.80;;;1.70;40.90;;;;;;6181877;22;20027;-81
2023/11/26 08:54:05;;;;;;;1.55;0.90;;;1.70;12.20;;;;;;6248978;22;20039;-83
2023/11/26 08:56:32;;;;;;;1.10;0.82;;;1.80;1.00;;;;;;6293264;22;20186;-85
2023/11/26 08:58:59;;;;;;;1.55;0.93;;;1.80;1.00;;;;;;6291446;22;20046;-82
2023/11/26 09:01:28;;;;;;;1.40;1.10;;;1.90;1.00;;;;;;6290323;22;20805;-83
2023/11/26 09:03:55;;;;;;;0.80;0.68;;;2.00;42.00;;;;;;6260845;22;20015;-82
2023/11/26 09:06:22;;;;;;;0.90;0.70;;;2.20;94.60;;;;;;6288848;22;20092;-82
2023/11/26 09:08:50;;;;;;;1.33;0.80;;;2.30;93.80;;;;;;6235052;22;20023;-82
2023/11/26 09:11:18;;;;;;;0.95;0.80;;;2.40;79.20;;;;;;6286974;22;20413;-82
2023/11/26 09:13:46;;;;;;;1.55;0.80;;;2.50;1.00;;;;;;6235233;22;20089;-83
2023/11/26 09:16:13;;;;;;;1.75;1.00;;;2.60;1.00;;;;;;6237060;22;20088;-82
2023/11/26 09:18:42;;;;;;;1.17;0.70;;;2.70;99.90;;;;;;6288967;22;20445;-83
2023/11/26 09:21:10;;;;;;;1.70;0.85;;;2.70;99.90;;;;;;6236444;22;20022;-83
2023/11/26 09:23:37;;;;;;;1.77;0.95;;;2.80;99.90;;;;;;6235764;22;20069;-83
2023/11/26 09:26:04;;;;;;;1.50;0.80;;;2.90;99.90;;;;;;6260799;22;20023;-81
2023/11/26 09:28:31;;;;;;;1.35;0.98;;;3.00;99.90;;;;;;6261453;22;20023;-75
2023/11/26 09:30:58;;;;;;;1.40;0.82;;;3.10;1.00;;;;;;6261096;22;20023;-76
2023/11/26 09:33:25;;;;;;;1.20;0.90;;;3.20;1.00;;;;;;6287546;22;20020;-76
2023/11/26 09:35:52;;;;;;;1.58;0.90;;;3.20;1.00;;;;;;6288818;22;20665;-77
2023/11/26 09:38:19;;;;;;;1.40;1.17;;;3.30;99.90;;;;;;6259620;22;20042;-76
2023/11/26 09:40:46;;;;;;;1.17;0.70;;;3.40;99.90;;;;;;6261109;22;20409;-77
2023/11/26 09:43:13;;;;;;;1.80;1.23;;;3.50;99.90;;;;;;6287538;22;20453;-76
2023/11/26 09:45:41;;;;;;;1.17;0.63;;;3.60;99.90;;;;;;6261358;22;20023;-77
2023/11/26 09:48:09;;;;;;;0.95;0.80;;;3.70;99.90;;;;;;6287065;22;20860;-76
2023/11/26 09:50:36;;;;;;;1.63;1.17;;;3.80;99.90;;;;;;6236537;22;20630;-76
2023/11/26 09:53:04;;;;;;;0.98;0.68;;;3.90;99.90;;;;;;6285733;22;20479;-76
2023/11/26 09:55:38;;;;;;;1.25;0.70;;;3.90;99.90;;;;;;6262710;22;20108;-77
2023/11/26 09:58:05;;;;;;;0.63;0.50;;;4.00;99.90;;;;;;6260954;22;20019;-76
2023/11/26 10:00:32;;;;;;;0.80;0.50;;;4.10;99.90;;;;;;6289307;22;20129;-74
2023/11/26 10:03:03;;;;;;;1.02;0.77;;;4.20;99.90;;;;;;6288057;22;20026;-75
2023/11/26 10:05:32;;;;;;;1.02;0.50;;;4.30;99.90;;;;;;6236441;22;20026;-75
2023/11/26 10:08:00;;;;;;;0.57;0.40;;;4.40;99.90;;;;;;6260954;22;20823;-75
2023/11/26 10:10:28;;;;;;;0.50;0.50;;;4.50;99.90;;;;;;6260871;22;20019;-79
2023/11/26 10:12:58;;;;;;;0.68;0.50;;;4.50;99.90;;;;;;6233193;22;20072;-80
2023/11/26 10:15:28;;;;;;;0.82;0.65;;;4.60;99.90;;;;;;6289527;22;20027;-76
2023/11/26 10:17:59;;;;;;;1.02;0.80;;;4.70;99.90;;;;;;6262049;22;20027;-81
2023/11/26 10:20:27;;;;;;;1.10;0.60;;;4.80;99.90;;;;;;6289850;22;20452;-83
2023/11/26 10:22:54;;;;;;;0.73;0.50;;;4.80;99.90;;;;;;6258348;22;20020;-82
2023/11/26 10:25:23;;;;;;;0.40;0.40;;;4.90;99.90;;;;;;6212423;22;20035;-82
2023/11/26 10:27:51;;;;;;;0.52;0.50;;;5.00;99.90;;;;;;6210559;22;20570;-82
2023/11/26 10:30:29;;;;;;;0.95;0.57;;;5.10;99.40;;;;;;6289467;22;20050;-82
2023/11/26 10:33:09;;;;;;;0.70;0.55;;;5.20;99.20;;;;;;6211786;22;20592;-84
2023/11/26 10:35:49;;;;;;;0.80;0.50;;;5.40;96.50;;;;;;6212818;22;20032;-83
2023/11/26 10:38:18;;;;;;;0.80;0.60;;;5.50;91.70;;;;;;6261209;22;20322;-84
2023/11/26 10:40:48;;;;;;;0.82;0.63;;;5.60;78.40;;;;;;6214914;22;20027;-85
2023/11/26 10:43:15;;;;;;;0.75;0.60;;;5.70;37.00;;;;;;6238402;22;20019;-83
2023/11/26 10:45:42;;;;;;;0.45;0.45;;;5.80;11.50;;;;;;6261690;22;20102;-82
2023/11/26 10:48:12;;;;;;;0.40;0.40;;;5.90;1.00;;;;;;6289999;22;20027;-82
2023/11/26 10:51:04;;;;;;;1.00;0.52;;;6.00;1.00;;;;;;6213707;22;20035;-82
2023/11/26 10:54:05;;;;;;;0.55;0.40;;;6.10;1.00;;;;;;6284537;22;20348;-83
2023/11/26 10:56:38;;;;;;;0.95;0.45;;;6.10;1.00;;;;;;6234660;22;20026;-83
2023/11/26 10:59:09;;;;;;;0.40;0.40;;;6.10;1.00;;;;;;6233874;22;20023;-82
2023/11/26 11:01:36;;;;;;;0.63;0.52;;;6.00;1.00;;;;;;6236021;22;20114;-84
2023/11/26 11:04:12;;;;;;;0.90;0.60;;;6.00;1.00;;;;;;6260075;22;20465;-83
2023/11/26 11:06:39;;;;;;;0.60;0.45;;;6.00;1.00;;;;;;6259657;22;20722;-82
2023/11/26 11:09:10;;;;;;;0.40;0.40;;;6.00;1.00;;;;;;6209266;22;20026;-81
2023/11/26 11:12:07;;;;;;;0.75;0.50;;;6.00;1.00;;;;;;6237004;22;20081;-84
2023/11/26 11:14:34;;;;;;;0.20;0.20;;;6.00;1.00;;;;;;6240571;22;20054;-83
2023/11/26 11:17:01;;;;;;;0.28;0.28;;;6.00;1.00;;;;;;6291653;22;20102;-83
2023/11/26 11:19:50;;;;;;;0.73;0.50;;;6.10;1.00;;;;;;6263185;22;20033;-83
2023/11/26 11:22:17;;;;;;;0.55;0.40;;;6.10;1.00;;;;;;6237089;22;20059;-82
2023/11/26 11:24:45;;;;;;;0.50;0.47;;;6.10;1.00;;;;;;6238728;22;20046;-84
2023/11/26 11:27:12;;;;;;;0.40;0.40;;;6.20;1.00;;;;;;6238425;22;20101;-82
2023/11/26 11:29:42;;;;;;;0.38;0.38;;;6.30;1.00;;;;;;6263836;22;20022;-80
2023/11/26 11:32:09;;;;;;;0.45;0.30;;;6.30;1.00;;;;;;6264150;22;20023;-83
2023/11/26 11:34:36;;;;;;;0.52;0.40;;;6.40;1.00;;;;;;6214512;22;20023;-84
2023/11/26 11:37:04;;;;;;;0.70;0.52;;;6.40;1.00;;;;;;6263462;22;20584;-82
2023/11/26 11:39:49;;;;;;;0.57;0.43;;;6.50;1.00;;;;;;6260335;22;20100;-81
2023/11/26 11:42:25;;;;;;;0.60;0.40;;;6.50;1.00;;;;;;6236336;22;20406;-82
2023/11/26 11:44:54;;;;;;;1.23;0.70;;;6.60;1.00;;;;;;6242858;22;20020;-85
2023/11/26 11:47:41;;;;;;;0.52;0.40;;;6.60;1.00;;;;;;6237038;22;20332;-80
2023/11/26 11:50:09;;;;;;;0.52;0.40;;;6.80;1.00;;;;;;6239785;22;20126;-82
2023/11/26 11:52:37;;;;;;;0.70;0.45;;;6.80;1.00;;;;;;6236960;22;20031;-83
2023/11/26 11:55:33;;;;;;;0.30;0.30;;;6.90;1.00;;;;;;6233813;22;20051;-84
2023/11/26 11:58:11;;;;;;;1.10;0.40;;;7.00;1.00;;;;;;6209448;22;20027;-83
2023/11/26 12:00:38;;;;;;;0.30;0.30;;;7.10;1.00;;;;;;6233377;22;20457;-82
2023/11/26 12:03:05;;;;;;;0.60;0.43;;;7.10;1.00;;;;;;6235964;22;20068;-84
2023/11/26 12:05:33;;;;;;;0.80;0.30;;;7.20;1.00;;;;;;6235737;22;20050;-86
2023/11/26 12:08:01;;;;;;;0.20;0.20;;;7.30;1.00;;;;;;6211020;22;20764;-86
2023/11/26 12:10:30;;;;;;;0.30;0.30;;;7.40;1.00;;;;;;6263984;22;20023;-86
2023/11/26 12:13:01;;;;;;;0.45;0.38;;;7.40;1.00;;;;;;6206199;22;20024;-82
2023/11/26 12:15:29;;;;;;;0.65;0.40;;;7.40;1.00;;;;;;6230380;22;20528;-82
2023/11/26 12:17:57;;;;;;;0.38;0.30;;;7.40;1.00;;;;;;6180466;22;20043;-81
2023/11/26 12:20:26;;;;;;;0.32;0.20;;;7.40;1.00;;;;;;6231294;22;20062;-81
2023/11/26 12:22:53;;;;;;;0.43;0.22;;;7.40;1.00;;;;;;6204145;22;20591;-80
2023/11/26 12:25:22;;;;;;;0.35;0.35;;;7.30;1.00;;;;;;6204912;22;20038;-79
2023/11/26 12:28:05;;;;;;;0.43;0.30;;;7.30;1.00;;;;;;6232369;22;20026;-81
2023/11/26 12:30:38;;;;;;;0.45;0.30;;;7.30;1.00;;;;;;6230815;22;20485;-75
2023/11/26 12:33:07;;;;;;;0.63;0.40;;;7.50;1.00;;;;;;6255191;22;20027;-74
2023/11/26 12:35:34;;;;;;;0.63;0.40;;;7.60;1.00;;;;;;6230119;22;20430;-74
2023/11/26 12:38:05;;;;;;;0.50;0.30;;;7.70;1.00;;;;;;6230475;22;20710;-74
2023/11/26 12:40:33;;;;;;;0.40;0.35;;;7.80;1.00;;;;;;6229012;22;20023;-74
2023/11/26 12:43:00;;;;;;;0.32;0.30;;;7.90;1.00;;;;;;6206152;22;20054;-74
2023/11/26 12:45:27;;;;;;;0.60;0.30;;;7.90;1.00;;;;;;6230321;22;20736;-75
2023/11/26 12:47:55;;;;;;;0.43;0.32;;;8.00;1.00;;;;;;6255271;22;20829;-74
2023/11/26 12:50:22;;;;;;;0.75;0.30;;;8.00;1.00;;;;;;6230673;22;20103;-74
2023/11/26 12:52:50;;;;;;;0.30;0.30;;;8.00;1.00;;;;;;6205889;22;20109;-74
2023/11/26 12:55:17;;;;;;;0.60;0.20;;;7.90;1.00;;;;;;6234127;22;20029;-74
2023/11/26 12:57:45;;;;;;;0.35;0.30;;;7.90;1.00;;;;;;6258876;22;20046;-74
2023/11/26 13:00:13;;;;;;;0.40;0.30;;;7.80;1.00;;;;;;6287332;22;20027;-74
2023/11/26 13:02:41;;;;;;;0.30;0.30;;;7.80;1.00;;;;;;6259756;22;20026;-75
2023/11/26 13:05:29;;;;;;;0.45;0.40;;;7.80;1.00;;;;;;6210760;22;20073;-74
2023/11/26 13:08:00;;;;;;;0.85;0.43;;;7.80;1.00;;;;;;6233945;22;20023;-77
2023/11/26 13:10:47;;;;;;;0.38;0.20;;;7.70;1.00;;;;;;6260642;22;20027;-78
2023/11/26 13:13:26;;;;;;;0.20;0.20;;;7.70;1.00;;;;;;6236528;22;20313;-78